createdAt,value
2022-08-19T00:01:35.623Z,4.20
2022-08-19T00:04:09.099Z,3.87
2022-08-19T00:06:37.607Z,5.07
2022-08-19T00:09:06.689Z,4.70
2022-08-19T00:11:34.232Z,4.43
2022-08-19T00:14:01.192Z,4.47
2022-08-19T00:16:28.221Z,3.47
2022-08-19T00:18:56.369Z,3.83
2022-08-19T00:21:25.253Z,3.70
2022-08-19T00:23:52.135Z,4.00
2022-08-19T00:26:18.947Z,3.10
2022-08-19T00:28:45.780Z,3.40
2022-08-19T00:31:12.605Z,3.27
2022-08-19T00:33:39.419Z,3.30
2022-08-19T00:36:08.461Z,2.80
2022-08-19T00:38:38.079Z,2.77
2022-08-19T00:41:06.412Z,2.93
2022-08-19T00:43:33.484Z,2.63
2022-08-19T00:46:00.839Z,3.07
2022-08-19T00:48:27.670Z,4.30
2022-08-19T00:50:56.506Z,2.60
2022-08-19T00:53:27.349Z,2.00
2022-08-19T00:55:57.469Z,3.10
2022-08-19T00:58:33.362Z,3.80
2022-08-19T01:01:01.801Z,3.17
2022-08-19T01:03:29.288Z,2.80
2022-08-19T01:06:19.797Z,3.90
2022-08-19T01:08:47.650Z,2.27
2022-08-19T01:11:17.541Z,4.03
2022-08-19T01:13:49.809Z,3.03
2022-08-19T01:16:19.669Z,2.60
2022-08-19T01:18:46.613Z,2.93
2022-08-19T01:21:33.491Z,2.80
2022-08-19T01:24:00.272Z,2.73
2022-08-19T01:26:28.619Z,2.73
2022-08-19T01:29:00.726Z,3.40
2022-08-19T01:31:33.218Z,2.93
2022-08-19T01:34:01.615Z,3.50
2022-08-19T01:36:33.577Z,3.50
2022-08-19T01:39:02.409Z,4.40
2022-08-19T01:41:29.218Z,5.37
2022-08-19T01:44:13.152Z,4.80
2022-08-19T01:46:44.903Z,5.10
2022-08-19T01:49:11.791Z,5.20
2022-08-19T01:51:41.778Z,5.40
2022-08-19T01:54:13.719Z,5.57
2022-08-19T01:56:56.609Z,6.27
2022-08-19T01:59:24.215Z,6.50
2022-08-19T02:01:51.033Z,5.60
2022-08-19T02:04:17.896Z,7.37
2022-08-19T02:06:45.063Z,7.70
2022-08-19T02:09:11.800Z,7.90
2022-08-19T02:11:39.095Z,9.77
2022-08-19T02:14:08.056Z,7.77
2022-08-19T02:16:36.421Z,9.27
2022-08-19T02:19:03.674Z,10.37
2022-08-19T02:21:31.073Z,9.00
2022-08-19T02:23:58.634Z,9.43
2022-08-19T02:26:27.512Z,10.13
2022-08-19T02:28:55.532Z,12.60
2022-08-19T02:31:25.509Z,8.53
2022-08-19T02:33:53.392Z,12.50
2022-08-19T02:36:24.825Z,9.50
2022-08-19T02:38:55.049Z,12.47
2022-08-19T02:41:33.509Z,10.07
2022-08-19T02:44:30.701Z,10.73
2022-08-19T02:46:51.778Z,11.23
2022-08-19T02:49:20.089Z,11.40
2022-08-19T02:51:47.937Z,11.13
2022-08-19T02:54:15.843Z,11.17
2022-08-19T02:56:43.932Z,12.00
2022-08-19T02:59:12.314Z,12.73
2022-08-19T03:01:41.660Z,13.87
2022-08-19T03:04:10.347Z,13.30
2022-08-19T03:06:39.373Z,15.23
2022-08-19T03:09:06.177Z,15.13
2022-08-19T03:11:33.988Z,15.90
2022-08-19T03:14:01.468Z,15.53
2022-08-19T03:16:33.968Z,17.60
2022-08-19T03:19:01.579Z,17.33
2022-08-19T03:21:32.652Z,17.93
2022-08-19T03:24:01.784Z,17.43
2022-08-19T03:26:29.815Z,18.03
2022-08-19T03:28:58.011Z,17.83
2022-08-19T03:31:43.871Z,20.10
2022-08-19T03:34:29.012Z,19.63
2022-08-19T03:36:58.117Z,20.10
2022-08-19T03:39:25.830Z,19.63
2022-08-19T03:42:32.284Z,21.37
2022-08-19T03:44:45.974Z,22.77
2022-08-19T03:47:17.279Z,22.13
2022-08-19T03:49:45.050Z,22.27
2022-08-19T03:52:12.249Z,21.70
2022-08-19T03:54:39.413Z,21.77
2022-08-19T03:57:06.618Z,23.07
2022-08-19T03:59:36.703Z,25.53
2022-08-19T04:02:09.398Z,23.40
2022-08-19T04:04:38.110Z,23.93
2022-08-19T04:07:04.964Z,26.43
2022-08-19T04:09:31.798Z,26.30
2022-08-19T04:11:58.870Z,24.23
2022-08-19T04:14:30.990Z,25.80
2022-08-19T04:16:58.544Z,24.73
2022-08-19T04:19:25.934Z,27.57
2022-08-19T04:21:54.771Z,26.40
2022-08-19T04:24:22.871Z,28.07
2022-08-19T04:26:50.091Z,26.73
2022-08-19T04:29:25.655Z,25.27
2022-08-19T04:31:54.560Z,26.00
2022-08-19T04:34:24.241Z,26.53
2022-08-19T04:36:53.063Z,25.53
2022-08-19T04:39:50.139Z,26.67
2022-08-19T04:42:37.380Z,23.90
2022-08-19T04:45:06.445Z,24.83
2022-08-19T04:47:46.987Z,25.00
2022-08-19T04:50:16.027Z,27.60
2022-08-19T04:52:45.861Z,25.13
2022-08-19T04:55:13.598Z,26.43
2022-08-19T04:57:41.173Z,25.97
2022-08-19T05:00:09.643Z,25.00
2022-08-19T05:02:36.847Z,24.80
2022-08-19T05:05:04.262Z,25.97
2022-08-19T05:07:31.834Z,24.73
2022-08-19T05:09:59.262Z,24.23
2022-08-19T05:12:29.278Z,24.97
2022-08-19T05:14:57.846Z,22.90
2022-08-19T05:17:28.459Z,23.40
2022-08-19T05:20:15.194Z,26.37
2022-08-19T05:22:44.230Z,23.90
2022-08-19T05:25:14.631Z,23.40
2022-08-19T05:27:43.069Z,25.00
2022-08-19T05:30:11.794Z,25.40
2022-08-19T05:32:40.048Z,22.67
2022-08-19T05:35:07.327Z,21.93
2022-08-19T05:37:34.128Z,24.73
2022-08-19T05:40:01.160Z,23.90
2022-08-19T05:42:27.932Z,25.20
2022-08-19T05:44:54.953Z,23.53
2022-08-19T05:47:22.251Z,23.63
2022-08-19T05:49:50.958Z,23.17
2022-08-19T05:52:18.696Z,19.87
2022-08-19T05:54:48.797Z,22.53
2022-08-19T05:57:19.508Z,26.37
2022-08-19T05:59:46.801Z,24.60
2022-08-19T06:02:14.495Z,24.37
2022-08-19T06:04:43.737Z,28.37
2022-08-19T06:07:12.274Z,23.63
2022-08-19T06:09:39.201Z,27.17
2022-08-19T06:12:06.327Z,30.73
2022-08-19T06:14:35.535Z,26.40
2022-08-19T06:17:07.603Z,26.43
2022-08-19T06:19:34.736Z,24.63
2022-08-19T06:22:08.327Z,47.53
2022-08-19T06:24:36.182Z,46.53
2022-08-19T06:27:06.521Z,34.80
2022-08-19T06:29:33.538Z,30.07
2022-08-19T06:32:03.437Z,30.43
2022-08-19T06:34:32.477Z,29.23
2022-08-19T06:37:04.394Z,30.60
2022-08-19T06:39:34.700Z,31.90
2022-08-19T06:42:04.132Z,28.37
2022-08-19T06:44:35.415Z,31.90
2022-08-19T06:47:14.275Z,31.10
2022-08-19T06:49:42.535Z,33.30
2022-08-19T06:52:13.857Z,32.20
2022-08-19T06:54:55.470Z,28.37
2022-08-19T06:57:24.935Z,29.80
2022-08-19T06:59:52.107Z,32.40
2022-08-19T07:02:19.965Z,30.90
2022-08-19T07:04:46.779Z,33.27
2022-08-19T07:07:21.383Z,30.97
2022-08-19T07:09:57.107Z,32.83
2022-08-19T07:12:32.334Z,33.57
2022-08-19T07:14:59.492Z,34.83
2022-08-19T07:17:26.798Z,35.20
2022-08-19T07:19:54.771Z,33.10
2022-08-19T07:22:23.746Z,38.70
2022-08-19T07:24:52.086Z,35.00
2022-08-19T07:27:25.206Z,36.40
2022-08-19T07:29:59.644Z,37.87
2022-08-19T07:32:27.880Z,33.23
2022-08-19T07:34:56.370Z,40.07
2022-08-19T07:37:26.475Z,38.13
2022-08-19T07:39:55.214Z,36.10
2022-08-19T07:42:22.199Z,34.43
2022-08-19T07:44:50.518Z,36.50
2022-08-19T07:47:47.395Z,37.40
2022-08-19T07:50:09.040Z,37.90
2022-08-19T07:52:36.958Z,38.37
2022-08-19T07:55:05.047Z,37.30
2022-08-19T07:57:32.029Z,40.00
2022-08-19T07:59:59.506Z,39.73
2022-08-19T08:02:26.328Z,42.13
2022-08-19T08:05:11.686Z,39.33
2022-08-19T08:07:57.261Z,41.97
2022-08-19T08:10:24.574Z,43.93
2022-08-19T08:13:09.859Z,43.20
2022-08-19T08:15:42.604Z,42.87
2022-08-19T08:18:11.175Z,39.80
2022-08-19T08:20:38.163Z,45.83
2022-08-19T08:23:23.296Z,44.00
2022-08-19T08:25:50.547Z,46.03
2022-08-19T08:28:18.517Z,46.70
2022-08-19T08:30:48.449Z,40.03
2022-08-19T08:33:30.074Z,44.03
2022-08-19T08:36:09.070Z,42.70
2022-08-19T08:38:41.257Z,45.70
2022-08-19T08:41:20.485Z,44.70
2022-08-19T08:43:51.768Z,42.37
2022-08-19T08:46:32.726Z,49.37
2022-08-19T08:49:22.543Z,49.00
2022-08-19T08:51:56.099Z,44.07
2022-08-19T08:54:38.223Z,42.50
2022-08-19T08:57:13.673Z,43.93
2022-08-19T08:59:42.664Z,40.30
2022-08-19T09:02:09.766Z,43.00
2022-08-19T09:04:40.007Z,41.47
2022-08-19T09:07:44.695Z,43.63
2022-08-19T09:10:44.178Z,44.40
2022-08-19T09:13:20.560Z,43.90
2022-08-19T09:15:55.008Z,48.87
2022-08-19T09:18:21.797Z,47.53
2022-08-19T09:20:49.216Z,44.53
2022-08-19T09:23:17.174Z,46.03
2022-08-19T09:25:43.908Z,50.63
2022-08-19T09:28:20.323Z,48.10
2022-08-19T09:30:50.040Z,48.73
2022-08-19T09:33:21.054Z,51.40
2022-08-19T09:35:53.696Z,43.77
2022-08-19T09:38:21.851Z,57.03
2022-08-19T09:40:50.532Z,51.33
2022-08-19T09:43:33.359Z,45.63
2022-08-19T09:46:10.217Z,51.40
2022-08-19T09:48:37.774Z,45.33
2022-08-19T09:51:16.496Z,52.00
2022-08-19T09:53:45.033Z,53.47
2022-08-19T09:56:13.393Z,50.67
2022-08-19T09:58:41.614Z,48.07
2022-08-19T10:01:09.167Z,41.10
2022-08-19T10:03:37.214Z,45.33
2022-08-19T10:06:15.077Z,42.70
2022-08-19T10:08:49.980Z,44.20
2022-08-19T10:11:27.370Z,46.93
2022-08-19T10:13:55.917Z,41.60
2022-08-19T10:16:26.059Z,42.97
2022-08-19T10:18:58.673Z,51.47
2022-08-19T10:21:29.202Z,42.63
2022-08-19T10:24:02.519Z,42.10
2022-08-19T10:26:32.301Z,43.97
2022-08-19T10:28:59.101Z,41.97
2022-08-19T10:32:00.656Z,46.30
2022-08-19T10:34:27.515Z,45.20
2022-08-19T10:37:01.199Z,45.77
2022-08-19T10:39:30.980Z,47.03
2022-08-19T10:41:58.342Z,44.50
2022-08-19T10:44:25.352Z,52.67
2022-08-19T10:46:59.972Z,45.87
2022-08-19T10:49:28.135Z,53.17
2022-08-19T10:52:18.780Z,45.00
2022-08-19T10:55:08.595Z,44.20
2022-08-19T10:57:59.458Z,48.73
2022-08-19T11:00:24.211Z,48.97
2022-08-19T11:02:51.458Z,50.97
2022-08-19T11:05:19.621Z,45.70
2022-08-19T11:07:46.945Z,43.60
2022-08-19T11:10:18.309Z,43.17
2022-08-19T11:12:48.342Z,37.57
2022-08-19T11:15:15.343Z,30.87
2022-08-19T11:17:44.671Z,24.80
2022-08-19T11:20:14.066Z,21.67
2022-08-19T11:22:42.292Z,25.53
2022-08-19T11:25:11.754Z,26.33
2022-08-19T11:27:43.822Z,21.60
2022-08-19T11:30:12.895Z,23.33
2022-08-19T11:32:45.725Z,26.70
2022-08-19T11:35:15.945Z,24.87
2022-08-19T11:37:42.854Z,20.53
2022-08-19T11:40:10.413Z,26.60
2022-08-19T11:42:55.909Z,19.53
2022-08-19T11:45:27.635Z,19.23
2022-08-19T11:47:54.903Z,17.33
2022-08-19T11:50:24.294Z,13.93
2022-08-19T11:52:55.092Z,11.50
2022-08-19T11:55:22.444Z,10.83
2022-08-19T11:57:49.358Z,8.77
2022-08-19T12:00:16.483Z,9.83
2022-08-19T12:02:43.504Z,10.30
2022-08-19T12:05:12.609Z,11.73
2022-08-19T12:07:41.865Z,16.07
2022-08-19T12:10:09.198Z,16.60
2022-08-19T12:12:43.654Z,19.20
2022-08-19T12:15:12.920Z,19.87
2022-08-19T12:17:39.703Z,16.73
2022-08-19T12:20:07.946Z,16.50
2022-08-19T12:22:35.959Z,16.43
2022-08-19T12:25:02.802Z,16.20
2022-08-19T12:27:38.370Z,17.23
2022-08-19T12:30:11.914Z,15.60
2022-08-19T12:32:39.729Z,15.10
2022-08-19T12:35:09.042Z,14.33
2022-08-19T12:37:35.881Z,13.13
2022-08-19T12:40:04.034Z,13.57
2022-08-19T12:42:31.490Z,10.97
2022-08-19T12:44:58.461Z,11.17
2022-08-19T12:47:27.439Z,9.67
2022-08-19T12:49:56.000Z,10.30
2022-08-19T12:52:25.415Z,9.73
2022-08-19T12:54:54.293Z,8.00
2022-08-19T12:57:23.750Z,8.40
2022-08-19T12:59:59.876Z,9.43
2022-08-19T13:02:27.392Z,9.83
2022-08-19T13:04:54.788Z,11.20
2022-08-19T13:07:21.971Z,9.70
2022-08-19T13:09:48.775Z,7.97
2022-08-19T13:12:15.590Z,9.83
2022-08-19T13:14:42.805Z,10.17
2022-08-19T13:17:09.702Z,9.77
2022-08-19T13:19:38.404Z,10.30
2022-08-19T13:22:13.103Z,10.40
2022-08-19T13:24:46.922Z,10.20
2022-08-19T13:27:14.799Z,8.83
2022-08-19T13:30:01.381Z,9.97
2022-08-19T13:32:48.162Z,10.03
2022-08-19T13:35:17.218Z,9.67
2022-08-19T13:37:45.322Z,10.90
2022-08-19T13:40:19.864Z,11.30
2022-08-19T13:42:49.384Z,12.17
2022-08-19T13:45:19.236Z,10.63
2022-08-19T13:47:58.648Z,12.30
2022-08-19T13:50:28.964Z,11.77
2022-08-19T13:52:56.842Z,12.60
2022-08-19T13:55:25.091Z,11.50
2022-08-19T13:57:56.819Z,12.87
2022-08-19T14:00:27.543Z,13.93
2022-08-19T14:02:57.031Z,14.60
2022-08-19T14:05:25.230Z,14.77
2022-08-19T14:07:52.258Z,14.90
2022-08-19T14:10:19.909Z,17.13
2022-08-19T14:12:47.325Z,17.87
2022-08-19T14:15:15.445Z,16.93
2022-08-19T14:17:45.419Z,18.70
2022-08-19T14:20:17.505Z,19.97
2022-08-19T14:22:46.921Z,19.57
2022-08-19T14:25:16.961Z,17.83
2022-08-19T14:27:45.441Z,21.03
2022-08-19T14:30:15.410Z,19.40
2022-08-19T14:32:44.381Z,16.87
2022-08-19T14:35:13.513Z,20.00
2022-08-19T14:37:45.350Z,18.63
2022-08-19T14:40:15.078Z,18.07
2022-08-19T14:42:42.834Z,19.07
2022-08-19T14:45:11.469Z,19.10
2022-08-19T14:47:39.691Z,19.47
2022-08-19T14:50:18.152Z,17.87
2022-08-19T14:52:47.404Z,18.77
2022-08-19T14:55:14.854Z,19.27
2022-08-19T14:57:42.799Z,16.13
2022-08-19T15:00:14.421Z,17.97
2022-08-19T15:02:42.364Z,18.60
2022-08-19T15:05:09.462Z,20.40
2022-08-19T15:07:36.288Z,19.13
2022-08-19T15:10:04.598Z,25.07
2022-08-19T15:12:31.460Z,16.50
2022-08-19T15:14:58.375Z,17.60
2022-08-19T15:17:32.439Z,16.03
2022-08-19T15:20:14.672Z,15.23
2022-08-19T15:22:42.720Z,14.43
2022-08-19T15:25:11.894Z,16.23
2022-08-19T15:27:40.555Z,17.53
2022-08-19T15:30:09.485Z,17.60
2022-08-19T15:32:37.384Z,16.97
2022-08-19T15:35:06.553Z,15.50
2022-08-19T15:37:37.458Z,15.43
2022-08-19T15:40:07.551Z,11.03
2022-08-19T15:42:37.512Z,11.10
2022-08-19T15:45:06.277Z,12.63
2022-08-19T15:47:34.741Z,12.20
2022-08-19T15:50:06.354Z,12.93
2022-08-19T15:52:44.999Z,13.90
2022-08-19T15:55:33.013Z,13.20
2022-08-19T15:58:28.355Z,14.33
2022-08-19T16:01:21.313Z,12.87
2022-08-19T16:04:13.979Z,12.80
2022-08-19T16:06:45.999Z,10.13
2022-08-19T16:09:13.169Z,11.20
2022-08-19T16:11:45.457Z,9.87
2022-08-19T16:14:16.744Z,11.57
2022-08-19T16:16:46.816Z,10.23
2022-08-19T16:19:16.370Z,17.47
2022-08-19T16:21:45.869Z,10.97
2022-08-19T16:24:14.188Z,11.40
2022-08-19T16:26:42.734Z,11.40
2022-08-19T16:29:12.945Z,10.20
2022-08-19T16:31:43.533Z,10.27
2022-08-19T16:34:11.481Z,11.30
2022-08-19T16:36:41.827Z,14.07
2022-08-19T16:39:10.804Z,11.37
2022-08-19T16:41:41.994Z,9.97
2022-08-19T16:44:11.531Z,10.10
2022-08-19T16:46:42.526Z,9.30
2022-08-19T16:49:10.757Z,11.53
2022-08-19T16:51:39.616Z,10.97
2022-08-19T16:54:07.080Z,10.83
2022-08-19T16:56:34.435Z,12.20
2022-08-19T16:59:03.801Z,11.10
2022-08-19T17:01:31.163Z,12.23
2022-08-19T17:03:58.848Z,13.70
2022-08-19T17:06:29.825Z,14.10
2022-08-19T17:09:01.776Z,13.13
2022-08-19T17:11:31.610Z,12.80
2022-08-19T17:13:58.996Z,13.23
2022-08-19T17:16:28.632Z,15.40
2022-08-19T17:18:57.278Z,15.23
2022-08-19T17:21:29.443Z,15.13
2022-08-19T17:23:57.066Z,12.90
2022-08-19T17:26:25.387Z,14.27
2022-08-19T17:28:54.518Z,14.37
2022-08-19T17:31:25.886Z,14.00
2022-08-19T17:33:55.148Z,13.80
2022-08-19T17:36:23.572Z,14.70
2022-08-19T17:38:51.304Z,14.40
2022-08-19T17:41:18.292Z,15.50
2022-08-19T17:43:45.224Z,14.50
2022-08-19T17:46:17.561Z,15.90
2022-08-19T17:48:51.446Z,14.80
2022-08-19T17:51:22.269Z,14.53
2022-08-19T17:53:52.176Z,16.20
2022-08-19T17:56:19.230Z,14.30
2022-08-19T17:58:48.034Z,16.07
2022-08-19T18:01:23.075Z,14.97
2022-08-19T18:03:51.804Z,16.67
2022-08-19T18:06:18.532Z,15.50
2022-08-19T18:08:46.669Z,16.17
2022-08-19T18:11:13.523Z,16.97
2022-08-19T18:13:40.774Z,16.60
2022-08-19T18:16:11.053Z,19.53
2022-08-19T18:18:42.298Z,17.67
2022-08-19T18:21:10.024Z,15.83
2022-08-19T18:23:44.055Z,15.17
2022-08-19T18:26:12.796Z,16.17
2022-08-19T18:28:43.265Z,15.53
2022-08-19T18:31:17.530Z,14.60
2022-08-19T18:33:45.216Z,14.83
2022-08-19T18:36:12.212Z,14.20
2022-08-19T18:38:58.061Z,13.53
2022-08-19T18:41:43.543Z,15.53
2022-08-19T18:44:29.089Z,14.57
2022-08-19T18:47:34.084Z,13.73
2022-08-19T18:50:07.966Z,15.93
2022-08-19T18:52:39.985Z,13.87
2022-08-19T18:55:07.839Z,14.70
2022-08-19T18:57:34.815Z,14.50
2022-08-19T19:00:04.409Z,13.47
2022-08-19T19:02:39.010Z,13.70
2022-08-19T19:05:07.800Z,14.37
2022-08-19T19:07:35.332Z,15.80
2022-08-19T19:10:02.395Z,14.10
2022-08-19T19:12:36.430Z,15.13
2022-08-19T19:15:08.041Z,12.87
2022-08-19T19:17:34.837Z,14.50
2022-08-19T19:20:01.594Z,13.60
2022-08-19T19:22:28.496Z,14.23
2022-08-19T19:24:55.634Z,15.13
2022-08-19T19:27:22.855Z,15.40
2022-08-19T19:29:52.279Z,14.07
2022-08-19T19:32:23.125Z,14.03
2022-08-19T19:34:50.684Z,15.27
2022-08-19T19:37:17.830Z,16.33
2022-08-19T19:39:46.282Z,16.50
2022-08-19T19:42:20.555Z,16.60
2022-08-19T19:44:50.444Z,15.10
2022-08-19T19:47:19.065Z,16.43
2022-08-19T19:50:12.686Z,15.83
2022-08-19T19:52:34.145Z,14.60
2022-08-19T19:55:01.451Z,15.77
2022-08-19T19:57:31.273Z,14.50
2022-08-19T19:59:58.762Z,15.13
2022-08-19T20:02:27.649Z,15.13
2022-08-19T20:04:57.093Z,16.37
2022-08-19T20:07:43.856Z,14.93
2022-08-19T20:10:13.081Z,15.63
2022-08-19T20:12:39.943Z,15.60
2022-08-19T20:15:07.942Z,14.90
2022-08-19T20:17:42.373Z,14.90
2022-08-19T20:20:11.085Z,16.10
2022-08-19T20:22:39.986Z,15.83
2022-08-19T20:25:08.203Z,15.07
2022-08-19T20:27:39.723Z,17.23
2022-08-19T20:30:13.887Z,15.80
2022-08-19T20:32:47.081Z,16.87
2022-08-19T20:35:16.312Z,16.80
2022-08-19T20:37:43.169Z,17.03
2022-08-19T20:40:11.587Z,17.80
2022-08-19T20:42:40.464Z,17.93
2022-08-19T20:45:18.281Z,20.90
2022-08-19T20:48:02.346Z,20.67
2022-08-19T20:50:30.439Z,24.63
2022-08-19T20:52:57.783Z,22.27
2022-08-19T20:55:25.871Z,22.47
2022-08-19T20:57:52.723Z,23.13
2022-08-19T21:00:19.811Z,22.43
2022-08-19T21:02:47.009Z,21.23
2022-08-19T21:05:14.804Z,24.63
2022-08-19T21:07:41.656Z,22.93
2022-08-19T21:10:08.668Z,21.07
2022-08-19T21:12:35.666Z,20.63
2022-08-19T21:15:02.497Z,23.23
2022-08-19T21:17:29.262Z,23.80
2022-08-19T21:19:56.021Z,23.57
2022-08-19T21:22:22.801Z,23.03
2022-08-19T21:24:49.598Z,21.57
2022-08-19T21:27:16.373Z,22.57
2022-08-19T21:29:43.186Z,23.60
2022-08-19T21:32:14.342Z,23.53
2022-08-19T21:34:45.441Z,25.17
2022-08-19T21:37:19.011Z,23.30
2022-08-19T21:39:52.197Z,24.30
2022-08-19T21:42:19.074Z,24.20
2022-08-19T21:44:45.992Z,23.80
2022-08-19T21:47:12.988Z,23.70
2022-08-19T21:49:40.064Z,20.30
2022-08-19T21:52:07.226Z,20.97
2022-08-19T21:54:37.949Z,21.93
2022-08-19T21:57:09.958Z,19.20
2022-08-19T21:59:41.134Z,21.63
2022-08-19T22:02:20.064Z,21.03
2022-08-19T22:04:48.441Z,21.07
2022-08-19T22:07:15.607Z,19.80
2022-08-19T22:09:43.954Z,21.73
2022-08-19T22:12:23.475Z,22.03
2022-08-19T22:14:52.049Z,20.60
2022-08-19T22:17:20.009Z,22.23
2022-08-19T22:19:47.144Z,22.70
2022-08-19T22:22:20.770Z,22.50
2022-08-19T22:24:47.534Z,22.47
2022-08-19T22:27:14.284Z,24.33
2022-08-19T22:29:41.086Z,25.47
2022-08-19T22:32:27.052Z,25.20
2022-08-19T22:34:57.219Z,25.67
2022-08-19T22:37:24.041Z,25.17
2022-08-19T22:39:50.867Z,30.43
2022-08-19T22:42:19.868Z,26.37
2022-08-19T22:44:46.781Z,28.07
2022-08-19T22:47:13.957Z,25.33
2022-08-19T22:49:40.961Z,29.40
2022-08-19T22:52:19.799Z,28.30
2022-08-19T22:54:49.594Z,29.07
2022-08-19T22:57:19.533Z,28.57
2022-08-19T22:59:51.149Z,28.80
2022-08-19T23:02:51.889Z,29.53
2022-08-19T23:05:22.187Z,29.67
2022-08-19T23:07:52.821Z,31.30
2022-08-19T23:10:27.613Z,31.67
2022-08-19T23:12:56.859Z,28.40
2022-08-19T23:15:26.363Z,29.37
2022-08-19T23:17:55.409Z,29.63
2022-08-19T23:20:27.229Z,32.03
2022-08-19T23:22:55.223Z,31.63
2022-08-19T23:25:32.971Z,32.30
2022-08-19T23:28:19.078Z,32.37
2022-08-19T23:30:48.677Z,39.17
2022-08-19T23:33:18.742Z,38.20
2022-08-19T23:35:45.493Z,37.00
2022-08-19T23:38:12.252Z,35.27
2022-08-19T23:40:40.175Z,34.30
2022-08-19T23:43:08.130Z,35.53
2022-08-19T23:45:40.776Z,36.90
2022-08-19T23:48:18.064Z,35.33
2022-08-19T23:50:45.715Z,37.90
2022-08-19T23:53:13.402Z,35.90
2022-08-19T23:55:44.151Z,38.27
2022-08-19T23:58:12.257Z,35.53
